MROC/SJO METAR and TAF weather

Enter ICAO airport designator
Station Type Date Time Source
MROC METAR 2019/06/17 14:00 UTC NOAA

MROC 171400Z 11011KT 080V160 CAVOK 25/19 A2999 NOSIG


Station Type Date Time Source
MROC Decoded METAR 2019/06/17 14:00 UTC NOAA

Juan Santamaria, Costa Rica (MROC) 10-00N 084-13W 939M
Jun 17, 2019 - 10:00 AM EDT / 2019.06.17 1400 UTC
Wind: from the ESE (110 degrees) at 13 MPH (11 KT) (direction variable):0
Visibility: greater than 7 mile(s):0
Temperature: 77 F (25 C)
Dew Point: 66 F (19 C)
Relative Humidity: 69%
Pressure (altimeter): 29.99 in. Hg (1015 hPa)
ob: MROC 171400Z 11011KT 080V160 CAVOK 25/19 A2999 NOSIG
cycle: 14

Station Type Date Time Source
MROC TAF 2019/06/17 12:28 UTC NOAA

TAF MROC 171100Z 1712/1812 11011KT 9999 FEW040 TX30/1719Z TN21/1811Z
TEMPO 1712/1717 11010G20KT
TEMPO 1718/1722 26007KT RA BKN020

Example: see airport list